createdAt,value
2016-10-12T00:00:57.815Z,99.99
2016-10-12T00:01:56.994Z,99.99
2016-10-12T00:02:57.116Z,99.99
2016-10-12T00:03:57.535Z,99.99
2016-10-12T00:04:56.934Z,99.99
2016-10-12T00:05:57.184Z,99.99
2016-10-12T00:06:57.363Z,99.99
2016-10-12T00:07:57.655Z,99.99
2016-10-12T00:08:57.253Z,99.99
2016-10-12T00:09:57.535Z,99.99
2016-10-12T00:10:57.916Z,99.99
2016-10-12T00:11:57.067Z,99.99
2016-10-12T00:12:57.296Z,99.99
2016-10-12T00:13:57.464Z,99.99
2016-10-12T00:14:57.174Z,99.99
2016-10-12T00:15:57.696Z,99.99
2016-10-12T00:16:58.258Z,99.99
2016-10-12T00:17:57.645Z,99.99
2016-10-12T00:18:57.780Z,99.99
2016-10-12T00:19:58.398Z,99.99
2016-10-12T00:20:57.571Z,99.99
2016-10-12T00:21:57.837Z,99.99
2016-10-12T00:22:57.681Z,99.99
2016-10-12T00:23:57.917Z,99.99
2016-10-12T00:24:57.910Z,99.99
2016-10-12T00:25:57.453Z,99.99
2016-10-12T00:26:57.325Z,99.99
2016-10-12T00:27:57.949Z,99.99
2016-10-12T00:28:57.532Z,99.99
2016-10-12T00:29:58.349Z,99.99
2016-10-12T00:30:57.284Z,99.99
2016-10-12T00:31:58.058Z,99.99
2016-10-12T00:32:57.832Z,99.99
2016-10-12T00:33:57.582Z,99.99
2016-10-12T00:34:58.275Z,99.99
2016-10-12T00:35:57.690Z,99.99
2016-10-12T00:36:57.930Z,99.99
2016-10-12T00:37:57.693Z,99.99
2016-10-12T00:38:57.453Z,99.99
2016-10-12T00:39:58.001Z,99.99
2016-10-12T00:40:57.800Z,99.99
2016-10-12T00:41:57.933Z,99.99
2016-10-12T00:42:57.803Z,99.99
2016-10-12T00:43:57.925Z,99.99
2016-10-12T00:44:57.932Z,99.99
2016-10-12T00:45:57.643Z,99.99
2016-10-12T00:46:57.748Z,99.99
2016-10-12T00:47:57.793Z,99.99
2016-10-12T00:48:57.946Z,99.99
2016-10-12T00:49:57.883Z,99.99
2016-10-12T00:50:57.792Z,99.99
2016-10-12T00:51:58.106Z,99.99
2016-10-12T00:52:57.991Z,99.99
2016-10-12T00:53:58.013Z,99.99
2016-10-12T00:54:58.119Z,99.99
2016-10-12T00:55:57.841Z,99.99
2016-10-12T00:56:58.188Z,99.99
2016-10-12T00:57:57.818Z,99.99
2016-10-12T00:58:58.252Z,99.99
2016-10-12T00:59:58.007Z,99.99
2016-10-12T01:00:57.908Z,99.99
2016-10-12T01:01:58.541Z,99.99
2016-10-12T01:02:57.981Z,99.99
2016-10-12T01:03:58.950Z,99.99
2016-10-12T01:04:58.290Z,99.99
2016-10-12T01:05:57.913Z,99.99
2016-10-12T01:06:58.302Z,99.99
2016-10-12T01:07:58.055Z,99.99
2016-10-12T01:08:58.058Z,99.99
2016-10-12T01:09:58.691Z,99.99
2016-10-12T01:10:58.247Z,99.99
2016-10-12T01:11:58.294Z,99.99
2016-10-12T01:12:58.460Z,99.99
2016-10-12T01:13:58.360Z,99.99
2016-10-12T01:14:58.403Z,99.99
2016-10-12T01:15:58.210Z,99.99
2016-10-12T01:16:58.831Z,99.99
2016-10-12T01:17:58.200Z,99.99
2016-10-12T01:18:58.433Z,99.99
2016-10-12T01:19:58.973Z,99.99
2016-10-12T01:20:58.570Z,99.99
2016-10-12T01:21:58.968Z,99.99
2016-10-12T01:22:58.590Z,99.99
2016-10-12T01:23:58.761Z,99.99
2016-10-12T01:24:58.579Z,99.99
2016-10-12T01:25:58.750Z,99.99
2016-10-12T01:26:58.487Z,99.99
2016-10-12T01:27:58.783Z,99.99
2016-10-12T01:28:58.750Z,99.99
2016-10-12T01:29:58.573Z,99.99
2016-10-12T01:30:58.850Z,99.99
2016-10-12T01:31:58.481Z,99.99
2016-10-12T01:32:58.598Z,99.99
2016-10-12T01:33:58.811Z,99.99
2016-10-12T01:34:58.808Z,99.99
2016-10-12T01:35:58.420Z,99.99
2016-10-12T01:36:58.749Z,99.99
2016-10-12T01:37:58.541Z,99.99
2016-10-12T01:38:58.694Z,99.99
2016-10-12T01:39:59.037Z,99.99
2016-10-12T01:40:58.782Z,99.99
2016-10-12T01:41:59.125Z,99.99
2016-10-12T01:42:58.744Z,99.99
2016-10-12T01:43:59.014Z,99.99
2016-10-12T01:44:59.312Z,99.99
2016-10-12T01:45:59.061Z,99.99
2016-10-12T01:46:59.492Z,99.99
2016-10-12T01:47:59.019Z,99.99
2016-10-12T01:48:58.820Z,99.99
2016-10-12T01:49:59.241Z,99.99
2016-10-12T01:50:59.261Z,99.99
2016-10-12T01:51:58.879Z,99.99
2016-10-12T01:52:59.290Z,99.99
2016-10-12T01:53:59.137Z,99.99
2016-10-12T01:54:59.459Z,99.99
2016-10-12T01:55:58.887Z,99.99
2016-10-12T01:56:59.363Z,99.99
2016-10-12T01:57:58.929Z,99.99
2016-10-12T01:58:59.433Z,99.99
2016-10-12T01:59:59.148Z,99.99
2016-10-12T02:00:59.489Z,99.99
2016-10-12T02:01:59.494Z,99.99
2016-10-12T02:02:59.680Z,99.99
2016-10-12T02:03:59.212Z,99.99
2016-10-12T02:04:59.470Z,99.99
2016-10-12T02:05:59.455Z,99.99
2016-10-12T02:06:58.892Z,99.99
2016-10-12T02:07:59.224Z,99.99
2016-10-12T02:08:59.473Z,99.99
2016-10-12T02:09:59.621Z,99.99
2016-10-12T02:10:59.644Z,99.99
2016-10-12T02:11:59.895Z,99.99
2016-10-12T02:12:59.438Z,99.99
2016-10-12T02:14:00.025Z,99.99
2016-10-12T02:14:59.206Z,99.99
2016-10-12T02:15:59.465Z,99.99
2016-10-12T02:16:59.748Z,99.99
2016-10-12T02:17:59.967Z,99.99
2016-10-12T02:18:59.719Z,99.99
2016-10-12T02:19:59.573Z,99.99
2016-10-12T02:20:59.416Z,99.99
2016-10-12T02:21:59.810Z,99.99
2016-10-12T02:22:59.501Z,99.99
2016-10-12T02:23:59.672Z,99.99
2016-10-12T02:24:59.374Z,99.99
2016-10-12T02:25:59.820Z,99.99
2016-10-12T02:26:59.898Z,99.99
2016-10-12T02:28:00.031Z,99.99
2016-10-12T02:28:59.438Z,99.99
2016-10-12T02:29:59.527Z,99.99
2016-10-12T02:30:59.434Z,99.99
2016-10-12T02:31:59.807Z,99.99
2016-10-12T02:32:59.598Z,99.99
2016-10-12T02:34:00.071Z,99.99
2016-10-12T02:34:59.510Z,99.99
2016-10-12T02:36:00.593Z,99.99
2016-10-12T02:36:59.945Z,99.99
2016-10-12T02:38:00.146Z,99.99
2016-10-12T02:38:59.765Z,99.99
2016-10-12T02:39:59.810Z,99.99
2016-10-12T02:40:59.932Z,99.99
2016-10-12T02:42:00.142Z,99.99
2016-10-12T02:42:59.930Z,99.99
2016-10-12T02:44:00.079Z,99.99
2016-10-12T02:44:59.661Z,99.99
2016-10-12T02:45:59.791Z,99.99
2016-10-12T02:46:59.984Z,99.99
2016-10-12T02:48:00.200Z,99.99
2016-10-12T02:49:00.551Z,99.99
2016-10-12T02:50:00.219Z,99.99
2016-10-12T02:51:00.092Z,99.99
2016-10-12T02:52:00.693Z,99.99
2016-10-12T02:53:00.209Z,99.99
2016-10-12T02:54:00.605Z,99.99
2016-10-12T02:54:59.944Z,99.99
2016-10-12T02:55:59.912Z,99.99
2016-10-12T02:57:00.759Z,99.99
2016-10-12T02:57:59.945Z,99.99
2016-10-12T02:59:00.559Z,99.99
2016-10-12T03:00:00.073Z,99.99
2016-10-12T03:01:00.349Z,99.99
2016-10-12T03:02:00.066Z,99.99
2016-10-12T03:03:00.273Z,99.99
2016-10-12T03:04:00.173Z,99.99
2016-10-12T03:05:00.089Z,99.99
2016-10-12T03:06:00.448Z,99.99
2016-10-12T03:07:00.252Z,99.99
2016-10-12T03:08:00.599Z,99.99
2016-10-12T03:09:00.457Z,99.99
2016-10-12T03:10:00.518Z,99.99
2016-10-12T03:11:00.244Z,99.99
2016-10-12T03:12:00.421Z,99.99
2016-10-12T03:13:00.375Z,99.99
2016-10-12T03:14:00.791Z,99.99
2016-10-12T03:15:00.519Z,99.99
2016-10-12T03:16:00.310Z,99.99
2016-10-12T03:17:00.381Z,99.99
2016-10-12T03:18:00.697Z,99.99
2016-10-12T03:19:00.431Z,99.99
2016-10-12T03:20:00.538Z,99.99
2016-10-12T03:21:01.204Z,99.99
2016-10-12T03:22:00.394Z,99.99
2016-10-12T03:23:00.430Z,99.99
2016-10-12T03:24:01.059Z,99.99
2016-10-12T03:25:00.163Z,99.99
2016-10-12T03:26:00.364Z,99.99
2016-10-12T03:27:00.443Z,99.99
2016-10-12T03:28:01.204Z,99.99
2016-10-12T03:29:00.867Z,99.99
2016-10-12T03:30:00.645Z,99.99
2016-10-12T03:31:00.775Z,99.99
2016-10-12T03:32:00.733Z,99.99
2016-10-12T03:33:00.917Z,99.99
2016-10-12T03:34:00.945Z,99.99
2016-10-12T03:35:01.082Z,99.99
2016-10-12T03:36:00.697Z,99.99
2016-10-12T03:37:01.571Z,99.99
2016-10-12T03:38:00.815Z,99.99
2016-10-12T03:39:01.267Z,99.99
2016-10-12T03:40:00.802Z,99.99
2016-10-12T03:41:01.319Z,99.99
2016-10-12T03:42:01.154Z,99.99
2016-10-12T03:43:00.874Z,99.99
2016-10-12T03:44:01.048Z,99.99
2016-10-12T03:45:01.605Z,99.99
2016-10-12T03:46:00.792Z,99.99
2016-10-12T03:47:01.319Z,99.99
2016-10-12T03:48:00.756Z,99.99
2016-10-12T03:49:01.756Z,99.99
2016-10-12T03:50:01.214Z,99.99
2016-10-12T03:51:01.529Z,99.99
2016-10-12T03:52:01.221Z,99.99
2016-10-12T03:53:01.251Z,99.99
2016-10-12T03:54:01.329Z,99.99
2016-10-12T03:55:01.405Z,99.99
2016-10-12T03:56:01.411Z,99.99
2016-10-12T03:57:00.752Z,99.99
2016-10-12T03:58:01.428Z,99.99
2016-10-12T03:59:01.013Z,99.99
2016-10-12T04:00:01.600Z,99.99
2016-10-12T04:01:01.278Z,99.99
2016-10-12T04:02:00.806Z,99.99
2016-10-12T04:03:01.995Z,99.99
2016-10-12T04:04:01.243Z,99.99
2016-10-12T04:05:01.143Z,99.99
2016-10-12T04:06:01.032Z,99.99
2016-10-12T04:07:01.759Z,99.99
2016-10-12T04:08:01.280Z,99.99
2016-10-12T04:09:01.636Z,99.99
2016-10-12T04:10:01.148Z,99.99
2016-10-12T04:11:01.545Z,99.99
2016-10-12T04:12:01.517Z,99.99
2016-10-12T04:13:01.457Z,99.99
2016-10-12T04:14:01.517Z,99.99
2016-10-12T04:15:01.364Z,99.99
2016-10-12T04:16:00.928Z,99.99
2016-10-12T04:17:02.507Z,99.99
2016-10-12T04:18:01.465Z,99.99
2016-10-12T04:19:01.312Z,99.99
2016-10-12T04:20:01.272Z,99.99
2016-10-12T04:21:01.559Z,99.99
2016-10-12T04:22:01.684Z,99.99
2016-10-12T04:23:01.659Z,99.99
2016-10-12T04:24:02.359Z,99.99
2016-10-12T04:25:01.588Z,99.99
2016-10-12T04:26:01.620Z,99.99
2016-10-12T04:27:01.549Z,99.99
2016-10-12T04:28:01.873Z,99.99
2016-10-12T04:29:01.984Z,99.99
2016-10-12T04:30:01.655Z,99.99
2016-10-12T04:31:01.509Z,99.99
2016-10-12T04:32:01.538Z,99.99
2016-10-12T04:33:01.816Z,99.99
2016-10-12T04:34:01.931Z,99.99
2016-10-12T04:35:01.752Z,99.99
2016-10-12T04:36:01.834Z,99.99
2016-10-12T04:37:01.697Z,99.99
2016-10-12T04:38:02.328Z,99.99
2016-10-12T04:39:01.877Z,99.99
2016-10-12T04:40:01.957Z,99.99
2016-10-12T04:41:01.986Z,99.99
2016-10-12T04:42:02.069Z,99.99
2016-10-12T04:43:01.785Z,99.99
2016-10-12T04:44:02.207Z,99.99
2016-10-12T04:45:02.240Z,99.99
2016-10-12T04:46:02.018Z,99.99
2016-10-12T04:47:02.425Z,99.99
2016-10-12T04:48:02.173Z,99.99
2016-10-12T04:49:01.900Z,99.99
2016-10-12T04:50:01.722Z,99.99
2016-10-12T04:51:01.865Z,99.99
2016-10-12T04:52:02.851Z,99.99
2016-10-12T04:53:01.858Z,99.99
2016-10-12T04:54:02.078Z,99.99
2016-10-12T04:55:02.537Z,99.99
2016-10-12T04:56:02.315Z,99.99
2016-10-12T04:57:02.298Z,99.99
2016-10-12T04:58:02.388Z,99.99
2016-10-12T04:59:01.877Z,99.99
2016-10-12T05:00:02.700Z,99.99
2016-10-12T05:01:02.426Z,99.99
2016-10-12T05:02:02.211Z,99.99
2016-10-12T05:03:02.354Z,99.99
2016-10-12T05:04:01.727Z,99.99
2016-10-12T05:05:04.400Z,99.99
2016-10-12T05:06:03.757Z,99.99
2016-10-12T05:07:01.738Z,99.99
2016-10-12T05:08:01.938Z,99.99
2016-10-12T05:09:02.345Z,99.99
2016-10-12T05:10:02.995Z,99.99
2016-10-12T05:11:02.649Z,99.99
2016-10-12T05:12:02.086Z,99.99
2016-10-12T05:13:02.903Z,99.99
2016-10-12T05:14:02.529Z,99.99
2016-10-12T05:15:02.577Z,99.99
2016-10-12T05:16:02.672Z,99.99
2016-10-12T05:17:02.101Z,99.99
2016-10-12T05:18:02.386Z,99.99
2016-10-12T05:19:02.635Z,99.99
2016-10-12T05:20:02.455Z,99.99
2016-10-12T05:21:02.396Z,99.99
2016-10-12T05:22:02.293Z,99.99
2016-10-12T05:23:02.188Z,99.99
2016-10-12T05:24:02.122Z,99.99
2016-10-12T05:25:02.914Z,99.99
2016-10-12T05:26:02.671Z,99.99
2016-10-12T05:27:02.769Z,99.99
2016-10-12T05:28:03.229Z,99.99
2016-10-12T05:29:02.755Z,99.99
2016-10-12T05:30:02.781Z,99.99
2016-10-12T05:31:02.836Z,99.99
2016-10-12T05:32:02.946Z,99.99
2016-10-12T05:33:03.170Z,99.99
2016-10-12T05:34:03.476Z,99.99
2016-10-12T05:35:02.798Z,99.99
2016-10-12T05:36:03.039Z,99.99
2016-10-12T05:37:02.851Z,99.99
2016-10-12T05:38:02.520Z,99.99
2016-10-12T05:39:02.801Z,99.99
2016-10-12T05:41:02.589Z,99.99
2016-10-12T05:42:02.783Z,99.99
2016-10-12T05:43:02.559Z,99.99
2016-10-12T05:44:02.772Z,99.99
2016-10-12T05:45:02.755Z,99.99
2016-10-12T05:46:03.445Z,99.99
2016-10-12T05:47:03.027Z,99.99
2016-10-12T05:48:03.169Z,99.99
2016-10-12T05:49:03.594Z,99.92
2016-10-12T05:50:03.637Z,99.99
2016-10-12T05:51:02.754Z,99.99
2016-10-12T05:52:02.826Z,99.99
2016-10-12T05:53:03.302Z,99.99
2016-10-12T05:54:02.838Z,99.83
2016-10-12T05:55:03.456Z,99.99
2016-10-12T05:56:03.385Z,99.99
2016-10-12T05:57:03.613Z,99.99
2016-10-12T05:58:02.868Z,99.99
2016-10-12T05:59:03.134Z,99.99
2016-10-12T06:00:03.360Z,99.99
2016-10-12T06:01:02.912Z,99.99
2016-10-12T06:02:03.427Z,99.99
2016-10-12T06:03:03.383Z,99.99
2016-10-12T06:04:03.203Z,99.99
2016-10-12T06:05:03.208Z,99.99
2016-10-12T06:06:03.532Z,99.83
2016-10-12T06:07:03.444Z,99.99
2016-10-12T06:08:03.627Z,99.99
2016-10-12T06:09:03.175Z,99.99
2016-10-12T06:10:03.278Z,99.99
2016-10-12T06:11:04.056Z,99.99
2016-10-12T06:12:03.643Z,99.99
2016-10-12T06:13:03.578Z,99.99
2016-10-12T06:14:03.250Z,99.99
2016-10-12T06:15:03.664Z,99.99
2016-10-12T06:16:03.262Z,99.99
2016-10-12T06:17:03.096Z,99.99
2016-10-12T06:18:03.278Z,99.99
2016-10-12T06:19:03.501Z,99.99
2016-10-12T06:20:03.394Z,99.99
2016-10-12T06:21:03.216Z,99.99
2016-10-12T06:22:03.399Z,99.99
2016-10-12T06:23:03.459Z,99.99
2016-10-12T06:24:03.435Z,99.99
2016-10-12T06:25:03.676Z,99.99
2016-10-12T06:26:03.665Z,99.99
2016-10-12T06:27:03.435Z,99.99
2016-10-12T06:28:03.369Z,99.99
2016-10-12T06:29:04.375Z,99.99
2016-10-12T06:30:03.428Z,99.99
2016-10-12T06:31:03.457Z,99.99
2016-10-12T06:32:03.718Z,99.99
2016-10-12T06:33:03.878Z,99.99
2016-10-12T06:34:04.356Z,99.99
2016-10-12T06:35:04.496Z,99.99
2016-10-12T06:36:03.793Z,99.99
2016-10-12T06:37:03.590Z,99.99
2016-10-12T06:38:03.425Z,99.99
2016-10-12T06:39:03.887Z,99.99
2016-10-12T06:40:03.619Z,99.99
2016-10-12T06:41:03.626Z,99.99
2016-10-12T06:42:03.628Z,99.99
2016-10-12T06:44:03.604Z,99.99
2016-10-12T06:45:03.696Z,99.99
2016-10-12T06:46:03.554Z,99.99
2016-10-12T06:47:03.709Z,99.99
2016-10-12T06:48:03.603Z,99.99
2016-10-12T06:49:03.564Z,99.99
2016-10-12T06:50:04.229Z,99.99
2016-10-12T06:51:03.824Z,99.99
2016-10-12T06:52:03.870Z,99.99
2016-10-12T06:53:04.363Z,99.99
2016-10-12T06:54:04.001Z,99.99
2016-10-12T06:55:04.447Z,99.99
2016-10-12T06:56:04.414Z,99.99
2016-10-12T06:57:04.561Z,99.99
2016-10-12T06:58:04.117Z,99.99
2016-10-12T06:59:04.787Z,99.99
2016-10-12T07:00:04.040Z,99.99
2016-10-12T07:01:04.583Z,99.99
2016-10-12T07:02:04.482Z,99.99
2016-10-12T07:03:03.933Z,99.99
2016-10-12T07:04:04.068Z,99.99
2016-10-12T07:05:04.538Z,99.99
2016-10-12T07:06:04.326Z,99.92
2016-10-12T07:07:04.511Z,99.99
2016-10-12T07:08:04.176Z,99.99
2016-10-12T07:09:04.315Z,99.99
2016-10-12T07:10:04.153Z,99.99
2016-10-12T07:11:04.188Z,99.99
2016-10-12T07:12:04.440Z,99.99
2016-10-12T07:13:04.362Z,99.92
2016-10-12T07:14:04.222Z,99.99
2016-10-12T07:15:04.363Z,99.92
2016-10-12T07:16:04.229Z,99.07
2016-10-12T07:17:03.942Z,99.21
2016-10-12T07:18:04.690Z,99.02
2016-10-12T07:19:05.044Z,99.35
2016-10-12T07:20:04.188Z,99.99
2016-10-12T07:21:04.021Z,99.99
2016-10-12T07:22:04.366Z,99.11
2016-10-12T07:23:04.504Z,99.02
2016-10-12T07:24:04.621Z,98.93
2016-10-12T07:25:04.866Z,99.11
2016-10-12T07:26:04.724Z,98.74
2016-10-12T07:27:04.337Z,98.45
2016-10-12T07:28:04.400Z,98.45
2016-10-12T07:29:05.172Z,99.21
2016-10-12T07:30:04.966Z,99.02
2016-10-12T07:31:04.704Z,98.93
2016-10-12T07:32:05.337Z,98.26
2016-10-12T07:33:04.738Z,98.83
2016-10-12T07:34:04.983Z,98.74
2016-10-12T07:35:04.434Z,98.83
2016-10-12T07:36:04.581Z,98.74
2016-10-12T07:37:04.711Z,98.07
2016-10-12T07:38:04.718Z,97.6
2016-10-12T07:39:04.727Z,96.93
2016-10-12T07:40:04.841Z,97.5
2016-10-12T07:41:04.648Z,96.93
2016-10-12T07:42:04.731Z,97.31
2016-10-12T07:43:05.311Z,98.07
2016-10-12T07:44:04.943Z,97.69
2016-10-12T07:45:05.470Z,97.45
2016-10-12T07:46:05.079Z,97.78
2016-10-12T07:47:05.194Z,97.5
2016-10-12T07:48:04.986Z,97.41
2016-10-12T07:49:04.797Z,96.45
2016-10-12T07:50:05.139Z,96.98
2016-10-12T07:51:05.021Z,96.69
2016-10-12T07:52:04.916Z,96.12
2016-10-12T07:53:04.873Z,96.03
2016-10-12T07:54:05.077Z,96.31
2016-10-12T07:55:06.066Z,96.69
2016-10-12T07:56:05.112Z,96.6
2016-10-12T07:57:05.132Z,96.69
2016-10-12T07:58:05.376Z,96.12
2016-10-12T07:59:05.320Z,96.03
2016-10-12T08:00:04.931Z,94.51
2016-10-12T08:01:06.265Z,93.27
2016-10-12T08:02:06.299Z,94.13
2016-10-12T08:03:05.438Z,94.13
2016-10-12T08:04:04.940Z,94.46
2016-10-12T08:05:05.203Z,96.03
2016-10-12T08:06:05.502Z,96.12
2016-10-12T08:07:05.414Z,96.12
2016-10-12T08:08:06.138Z,94.22
2016-10-12T08:09:05.222Z,94.7
2016-10-12T08:10:05.380Z,94.42
2016-10-12T08:11:06.287Z,94.7
2016-10-12T08:12:05.233Z,95.08
2016-10-12T08:13:06.118Z,96.31
2016-10-12T08:14:05.811Z,95.17
2016-10-12T08:15:05.384Z,94.7
2016-10-12T08:16:05.431Z,94.7
2016-10-12T08:17:05.310Z,95.36
2016-10-12T08:18:05.128Z,95.94
2016-10-12T08:19:05.508Z,95.46
2016-10-12T08:20:05.159Z,95.17
2016-10-12T08:21:06.592Z,93.65
2016-10-12T08:22:05.638Z,93.08
2016-10-12T08:23:05.803Z,92.99
2016-10-12T08:24:05.716Z,93.55
2016-10-12T08:25:05.752Z,93.65
2016-10-12T08:26:05.790Z,92.32
2016-10-12T08:27:05.887Z,92.51
2016-10-12T08:28:05.509Z,92.51
2016-10-12T08:29:05.788Z,92.8
2016-10-12T08:30:05.684Z,93.08
2016-10-12T08:31:05.949Z,92.99
2016-10-12T08:32:05.532Z,93.7
2016-10-12T08:33:05.823Z,93.98
2016-10-12T08:34:05.586Z,94.18
2016-10-12T08:35:06.391Z,93.65
2016-10-12T08:36:05.760Z,93.75
2016-10-12T08:37:06.116Z,93.13
2016-10-12T08:38:06.917Z,93.32
2016-10-12T08:39:06.236Z,92.56
2016-10-12T08:40:05.659Z,91.51
2016-10-12T08:41:06.039Z,91.89
2016-10-12T08:42:05.749Z,92.7
2016-10-12T08:43:05.802Z,92.36
2016-10-12T08:44:06.064Z,92.27
2016-10-12T08:45:05.857Z,91.89
2016-10-12T08:46:05.709Z,92.46
2016-10-12T08:47:06.009Z,92.18
2016-10-12T08:48:06.125Z,92.36
2016-10-12T08:49:05.770Z,92.08
2016-10-12T08:50:06.220Z,91.32
2016-10-12T08:51:06.004Z,91.03
2016-10-12T08:52:05.851Z,91.51
2016-10-12T08:53:06.005Z,90.94
2016-10-12T08:54:05.727Z,90.94
2016-10-12T08:55:06.691Z,91.51
2016-10-12T08:56:06.011Z,90.84
2016-10-12T08:57:05.695Z,90.75
2016-10-12T08:58:06.784Z,91.8
2016-10-12T08:59:06.378Z,90.75
2016-10-12T09:00:05.760Z,90.94
2016-10-12T09:01:06.024Z,91.99
2016-10-12T09:02:06.410Z,91.32
2016-10-12T09:03:05.881Z,90.56
2016-10-12T09:04:06.265Z,90.84
2016-10-12T09:05:06.078Z,91.22
2016-10-12T09:06:06.190Z,91.03
2016-10-12T09:07:06.129Z,90.37
2016-10-12T09:08:06.404Z,90.94
2016-10-12T09:09:06.614Z,91.03
2016-10-12T09:10:06.023Z,91.42
2016-10-12T09:11:05.938Z,91.89
2016-10-12T09:12:06.127Z,91.8
2016-10-12T09:13:06.529Z,91.61
2016-10-12T09:14:06.409Z,91.8
2016-10-12T09:15:06.091Z,91.89
2016-10-12T09:16:06.126Z,90.28
2016-10-12T09:17:06.351Z,91.51
2016-10-12T09:18:06.830Z,92.18
2016-10-12T09:19:06.811Z,92.56
2016-10-12T09:20:06.507Z,92.84
2016-10-12T09:21:07.036Z,92.75
2016-10-12T09:22:06.204Z,92.75
2016-10-12T09:23:06.439Z,92.27
2016-10-12T09:24:06.204Z,91.03
2016-10-12T09:25:07.645Z,90.75
2016-10-12T09:26:06.983Z,91.89
2016-10-12T09:27:06.503Z,91.32
2016-10-12T09:28:06.705Z,92.56
2016-10-12T09:29:07.462Z,92.27
2016-10-12T09:30:06.333Z,90.84
2016-10-12T09:31:06.318Z,90.56
2016-10-12T09:32:06.599Z,90.94
2016-10-12T09:33:06.468Z,90.61
2016-10-12T09:34:06.540Z,90.32
2016-10-12T09:35:06.539Z,90.32
2016-10-12T09:36:06.742Z,90.13
2016-10-12T09:37:06.675Z,90.42
2016-10-12T09:38:06.853Z,89.61
2016-10-12T09:39:06.721Z,90.47
2016-10-12T09:40:07.179Z,90.56
2016-10-12T09:41:06.635Z,91.13
2016-10-12T09:42:07.976Z,91.03
2016-10-12T09:43:06.763Z,90.94
2016-10-12T09:44:07.363Z,90.75
2016-10-12T09:45:06.965Z,91.13
2016-10-12T09:46:06.996Z,90.75
2016-10-12T09:47:07.037Z,90.94
2016-10-12T09:48:07.376Z,90.56
2016-10-12T09:49:06.788Z,92.75
2016-10-12T09:50:07.154Z,90.42
2016-10-12T09:51:07.396Z,88.51
2016-10-12T09:52:07.858Z,88.51
2016-10-12T09:53:07.683Z,88.99
2016-10-12T09:54:07.027Z,89.65
2016-10-12T09:55:07.389Z,90.03
2016-10-12T09:56:07.054Z,90.22
2016-10-12T09:57:07.375Z,89.94
2016-10-12T09:58:07.701Z,89.56
2016-10-12T09:59:08.034Z,89.27
2016-10-12T10:00:06.857Z,87.85
2016-10-12T10:01:08.135Z,88.89
2016-10-12T10:02:07.160Z,88.51
2016-10-12T10:03:07.461Z,89.08
2016-10-12T10:04:07.057Z,88.89
2016-10-12T10:05:07.576Z,88.51
2016-10-12T10:06:07.237Z,88.56
2016-10-12T10:07:06.913Z,89.75
2016-10-12T10:08:07.726Z,87.94
2016-10-12T10:09:07.833Z,88.23
2016-10-12T10:10:07.735Z,89.27
2016-10-12T10:11:07.347Z,89.37
2016-10-12T10:12:10.927Z,88.93
2016-10-12T10:13:07.547Z,87.51
2016-10-12T10:14:07.351Z,88.75
2016-10-12T10:15:07.667Z,88.27
2016-10-12T10:16:07.797Z,88.46
2016-10-12T10:17:07.247Z,88.56
2016-10-12T10:18:07.503Z,89.22
2016-10-12T10:19:07.417Z,87.6
2016-10-12T10:20:07.743Z,87.6
2016-10-12T10:21:07.801Z,87.51
2016-10-12T10:22:07.489Z,87.7
2016-10-12T10:23:07.454Z,88.84
2016-10-12T10:24:07.717Z,85.89
2016-10-12T10:25:07.618Z,86.65
2016-10-12T10:26:07.366Z,86.94
2016-10-12T10:27:08.073Z,86.8
2016-10-12T10:28:07.603Z,87.65
2016-10-12T10:29:07.981Z,90.08
2016-10-12T10:30:07.656Z,89.65
2016-10-12T10:31:08.123Z,90.32
2016-10-12T10:32:07.912Z,89.84
2016-10-12T10:33:08.045Z,89.37
2016-10-12T10:34:07.657Z,89.65
2016-10-12T10:35:08.463Z,89.18
2016-10-12T10:36:07.852Z,90.08
2016-10-12T10:37:07.727Z,89.37
2016-10-12T10:38:08.414Z,89.94
2016-10-12T10:39:07.969Z,89.08
2016-10-12T10:40:08.332Z,88.04
2016-10-12T10:41:07.783Z,88.04
2016-10-12T10:42:07.775Z,88.6
2016-10-12T10:43:08.136Z,88.23
2016-10-12T10:44:08.508Z,87.94
2016-10-12T10:45:08.082Z,87.65
2016-10-12T10:46:08.458Z,87.08
2016-10-12T10:47:08.288Z,87.23
2016-10-12T10:48:07.707Z,87.23
2016-10-12T10:49:08.084Z,88.46
2016-10-12T10:50:08.480Z,89.13
2016-10-12T10:51:08.081Z,88.56
2016-10-12T10:52:08.198Z,87.13
2016-10-12T10:53:08.209Z,87.23
2016-10-12T10:54:08.166Z,86.08
2016-10-12T10:55:08.441Z,86.27
2016-10-12T10:56:08.340Z,85.32
2016-10-12T10:57:08.051Z,86.27
2016-10-12T10:58:08.347Z,86.75
2016-10-12T10:59:08.229Z,86.18
2016-10-12T11:00:07.967Z,86.36
2016-10-12T11:01:08.180Z,86.27
2016-10-12T11:02:08.013Z,86.08
2016-10-12T11:03:08.077Z,85.75
2016-10-12T11:04:08.621Z,87.18
2016-10-12T11:05:08.714Z,87.08
2016-10-12T11:06:08.484Z,86.8
2016-10-12T11:07:08.578Z,87.6
2016-10-12T11:08:08.431Z,87.89
2016-10-12T11:09:08.208Z,86.84
2016-10-12T11:10:08.558Z,87.32
2016-10-12T11:11:08.261Z,86.27
2016-10-12T11:12:08.261Z,86.94
2016-10-12T11:13:08.784Z,87.23
2016-10-12T11:14:08.243Z,86.94
2016-10-12T11:15:08.885Z,87.13
2016-10-12T11:16:08.922Z,87.23
2016-10-12T11:17:08.994Z,87.51
2016-10-12T11:18:08.445Z,87.79
2016-10-12T11:19:08.622Z,87.6
2016-10-12T11:20:09.497Z,86.84
2016-10-12T11:21:08.525Z,87.41
2016-10-12T11:22:08.590Z,87.41
2016-10-12T11:23:08.722Z,87.98
2016-10-12T11:24:08.442Z,87.98
2016-10-12T11:25:08.697Z,88.18
2016-10-12T11:26:08.390Z,88.08
2016-10-12T11:27:08.876Z,87.7
2016-10-12T11:28:08.414Z,87.13
2016-10-12T11:29:08.513Z,87.41
2016-10-12T11:30:08.510Z,87.32
2016-10-12T11:31:08.508Z,87.23
2016-10-12T11:32:08.649Z,87.03
2016-10-12T11:33:09.675Z,87.03
2016-10-12T11:34:09.131Z,87.13
2016-10-12T11:35:08.816Z,86.36
2016-10-12T11:36:09.435Z,85.89
2016-10-12T11:37:08.920Z,85.6
2016-10-12T11:38:08.773Z,85.8
2016-10-12T11:39:08.965Z,86.36
2016-10-12T11:40:09.391Z,85.89
2016-10-12T11:41:08.880Z,84.94
2016-10-12T11:42:08.995Z,85.22
2016-10-12T11:43:09.403Z,84.84
2016-10-12T11:44:09.365Z,85.41
2016-10-12T11:45:08.918Z,84.75
2016-10-12T11:46:09.073Z,85.8
2016-10-12T11:47:08.953Z,86.94
2016-10-12T11:48:09.234Z,88.18
2016-10-12T11:49:09.697Z,86.84
2016-10-12T11:50:09.022Z,86.36
2016-10-12T11:51:10.174Z,86.27
2016-10-12T11:52:09.177Z,87.51
2016-10-12T11:53:09.223Z,85.41
2016-10-12T11:54:09.843Z,85.99
2016-10-12T11:55:09.550Z,86.8
2016-10-12T11:56:08.905Z,86.94
2016-10-12T11:57:09.313Z,87.03
2016-10-12T11:58:09.354Z,85.51
2016-10-12T11:59:09.340Z,86.36
2016-10-12T12:00:09.029Z,86.08
2016-10-12T12:01:09.327Z,87.13
2016-10-12T12:02:09.458Z,87.13
2016-10-12T12:03:09.499Z,86.55
2016-10-12T12:04:09.163Z,88.13
2016-10-12T12:05:09.127Z,86.65
2016-10-12T12:06:09.341Z,86.99
2016-10-12T12:07:09.743Z,87.41
2016-10-12T12:08:10.389Z,87.27
2016-10-12T12:09:09.384Z,87.18
2016-10-12T12:10:09.511Z,88.75
2016-10-12T12:11:09.875Z,87.41
2016-10-12T12:12:09.385Z,87.6
2016-10-12T12:13:09.662Z,88.27
2016-10-12T12:14:09.267Z,87.51
2016-10-12T12:15:09.591Z,86.94
2016-10-12T12:16:09.630Z,86.36
2016-10-12T12:17:09.699Z,86.36
2016-10-12T12:18:09.739Z,86.36
2016-10-12T12:19:09.528Z,85.7
2016-10-12T12:20:10.095Z,86.36
2016-10-12T12:21:09.898Z,87.51
2016-10-12T12:22:10.470Z,86.36
2016-10-12T12:23:09.909Z,84.56
2016-10-12T12:24:09.644Z,84.36
2016-10-12T12:25:09.896Z,86.55
2016-10-12T12:26:10.522Z,86.08
2016-10-12T12:27:10.498Z,85.7
2016-10-12T12:28:09.722Z,87.23
2016-10-12T12:29:09.679Z,85.13
2016-10-12T12:30:09.887Z,84.94
2016-10-12T12:31:09.786Z,84.36
2016-10-12T12:32:09.797Z,84.84
2016-10-12T12:33:10.665Z,85.13
2016-10-12T12:34:10.246Z,85.22
2016-10-12T12:35:10.382Z,85.51
2016-10-12T12:36:11.082Z,87.13
2016-10-12T12:37:10.347Z,86.36
2016-10-12T12:38:09.909Z,87.41
2016-10-12T12:39:09.802Z,86.61
2016-10-12T12:40:09.843Z,86.46
2016-10-12T12:41:09.924Z,86.7
2016-10-12T12:42:10.470Z,86.42
2016-10-12T12:43:09.738Z,86.42
2016-10-12T12:44:10.323Z,86.9
2016-10-12T12:45:09.820Z,87.08
2016-10-12T12:46:10.737Z,87.94
2016-10-12T12:47:10.382Z,86.51
2016-10-12T12:48:10.475Z,86.32
2016-10-12T12:49:10.037Z,86.7
2016-10-12T12:50:10.467Z,86.7
2016-10-12T12:51:10.363Z,87.46
2016-10-12T12:52:10.473Z,87.27
2016-10-12T12:53:10.893Z,87.18
2016-10-12T12:54:10.242Z,86.04
2016-10-12T12:55:10.966Z,87.46
2016-10-12T12:56:10.529Z,86.7